Storm Events Database

Event Details

Event Hail
Magnitude 1.75 in.
State MISSISSIPPI
County/Area CARROLL
WFO JAN
Report Source Emergency Manager
NCDC Data Source CSV
Begin Date 2011-04-20 16:39:00.0 CST-6
Begin Location 1E VALLEY HILL
Begin Lat/Lon 33.5/-90.03
End Date 2011-04-20 17:21:00.0 CST-6
End Location 5NNE MC CARLEY
End Lat/Lon 33.58/-89.8
Deaths Direct/Indirect 0/0 (fatality details below, when available...)
Injuries Direct/Indirect 0/0
Property Damage
Crop Damage 0.00K
Episode Narrative A multi-round severe weather event developed during the early morning hours of the 20th and lasted into the afternoon of the 21st. There were breaks in the episodes of the storms, but the axis of the activity mainly stayed across the northern sections of the forecast area. During these episodes, scattered supercell thunderstorms developed and produced large hail along with some damaging winds. A few of the more intense supercell storms produced hail as large as tennis balls and baseballs. As these storms moved over the same locations, locally heavy rainfall and flash flooding occurred across some areas.
Event Narrative A swath of quarter to golf ball sized hail fell across central sections of the county. This severe hail continued into Montgomery County where the hail actually became larger.


     ‚Äč



All events for this episode:

Location County/Zone St. Date Time T.Z. Type Mag Dth Inj PrD CrD
Totals: 0 0 3.359M 0.00K
ROCHDALE WATTA ARPT BOLIVAR CO. MS 04/20/2011 00:33 CST-6 Hail 1.75 in. 0 0 0.00K 0.00K
OXBERRY GRENADA CO. MS 04/20/2011 03:49 CST-6 Hail 1.50 in. 0 0 0.00K 0.00K
DUCK HILL MONTGOMERY CO. MS 04/20/2011 04:02 CST-6 Lightning 0 0 20.00K 0.00K
AVALON CARROLL CO. MS 04/20/2011 04:05 CST-6 Hail 1.00 in. 0 0 0.00K 0.00K
WAYSIDE WASHINGTON CO. MS 04/20/2011 04:22 CST-6 Hail 0.88 in. 0 0 0.00K 0.00K
MANHATTAN WASHINGTON CO. MS 04/20/2011 04:27 CST-6 Hail 1.00 in. 0 0 0.00K 0.00K
ESKRIDGE MONTGOMERY CO. MS 04/20/2011 04:37 CST-6 Hail 1.00 in. 0 0 0.00K 0.00K
CAILE SUNFLOWER CO. MS 04/20/2011 05:10 CST-6 Hail 1.50 in. 0 0 0.00K 0.00K
KINCAID GRENADA CO. MS 04/20/2011 05:41 CST-6 Hail 1.00 in. 0 0 0.00K 0.00K
STARKVILLE BRYAN ARP OKTIBBEHA CO. MS 04/20/2011 06:04 CST-6 Hail 1.00 in. 0 0 0.00K 0.00K
GRENADA GRENADA CO. MS 04/20/2011 06:30 CST-6 Flash Flood 0 0 15.00K 0.00K
CLARKSON WEBSTER CO. MS 04/20/2011 11:29 CST-6 Thunderstorm Wind 50 kts. EG 0 0 0.00K 0.00K
CUMBERLAND WEBSTER CO. MS 04/20/2011 11:33 CST-6 Hail 1.00 in. 0 0 0.00K 0.00K
MONEY LEFLORE CO. MS 04/20/2011 11:55 CST-6 Hail 1.00 in. 0 0 0.00K 0.00K
AVALON CARROLL CO. MS 04/20/2011 12:20 CST-6 Hail 1.75 in. 0 0 0.00K 0.00K
DUCK HILL MONTGOMERY CO. MS 04/20/2011 13:04 CST-6 Hail 1.75 in. 0 0 0.00K 0.00K
ELLIOTT GRENADA CO. MS 04/20/2011 13:05 CST-6 Hail 1.50 in. 0 0 0.00K 0.00K
SWEATMAN MONTGOMERY CO. MS 04/20/2011 13:20 CST-6 Hail 1.00 in. 0 0 0.00K 0.00K
CADARETTA WEBSTER CO. MS 04/20/2011 13:51 CST-6 Hail 1.75 in. 0 0 0.00K 0.00K
EUPORA WEBSTER CO. MS 04/20/2011 14:27 CST-6 Hail 1.00 in. 0 0 0.00K 0.00K
SHERWOOD CHOCTAW CO. MS 04/20/2011 14:48 CST-6 Hail 1.75 in. 0 0 0.00K 0.00K
MABEN OKTIBBEHA CO. MS 04/20/2011 15:00 CST-6 Hail 2.75 in. 0 0 300.00K 0.00K
PATRICK OKTIBBEHA CO. MS 04/20/2011 16:00 CST-6 Hail 1.75 in. 0 0 0.00K 0.00K
VALLEY HILL CARROLL CO. MS 04/20/2011 16:39 CST-6 Hail 1.75 in. 0 0 0.00K 0.00K
STARKVILLE OKTIBBEHA CO. MS 04/20/2011 16:45 CST-6 Flash Flood 0 0 700.00K 0.00K
MAYHEW LOWNDES CO. MS 04/20/2011 16:49 CST-6 Hail 1.75 in. 0 0 0.00K 0.00K
TIBBEE CLAY CO. MS 04/20/2011 17:00 CST-6 Hail 0.88 in. 0 0 0.00K 0.00K
ESKRIDGE MONTGOMERY CO. MS 04/20/2011 17:21 CST-6 Hail 2.50 in. 0 0 300.00K 0.00K
PATRICK OKTIBBEHA CO. MS 04/20/2011 17:40 CST-6 Hail 1.25 in. 0 0 0.00K 0.00K
MALMAISON CARROLL CO. MS 04/20/2011 17:53 CST-6 Hail 1.00 in. 0 0 0.00K 0.00K
VAIDEN CARROLL CO. MS 04/20/2011 17:55 CST-6 Hail 1.00 in. 0 0 0.00K 0.00K
PARSONS GRENADA CO. MS 04/20/2011 17:59 CST-6 Hail 1.00 in. 0 0 0.00K 0.00K
VAIDEN CARROLL CO. MS 04/20/2011 18:05 CST-6 Thunderstorm Wind 65 kts. EG 0 0 300.00K 0.00K
NORTH CARROLLTON CARROLL CO. MS 04/20/2011 18:10 CST-6 Thunderstorm Wind 65 kts. EG 0 0 40.00K 0.00K
PHILLIPSTOWN LEFLORE CO. MS 04/20/2011 18:11 CST-6 Hail 1.00 in. 0 0 0.00K 0.00K
POLAR CREEK MONTGOMERY CO. MS 04/20/2011 18:11 CST-6 Hail 1.75 in. 0 0 0.00K 0.00K
CRAWFORD LOWNDES CO. MS 04/20/2011 18:20 CST-6 Hail 1.75 in. 0 0 0.00K 0.00K
TIE PLANT GRENADA CO. MS 04/20/2011 18:22 CST-6 Thunderstorm Wind 50 kts. EG 0 0 20.00K 0.00K
SEVEN PINES CARROLL CO. MS 04/20/2011 18:25 CST-6 Thunderstorm Wind 55 kts. EG 0 0 1.00K 0.00K
DUCK HILL MONTGOMERY CO. MS 04/20/2011 18:30 CST-6 Flash Flood 0 0 100.00K 0.00K
GRENADA GRENADA CO. MS 04/20/2011 18:35 CST-6 Thunderstorm Wind 73 kts. EG 0 0 250.00K 0.00K
DUCK HILL MONTGOMERY CO. MS 04/20/2011 18:40 CST-6 Thunderstorm Wind 55 kts. EG 0 0 1.00K 0.00K
COLLEGE LOWNDES CO. MS 04/20/2011 18:50 CST-6 Thunderstorm Wind 50 kts. EG 0 0 0.00K 0.00K
STEWART MONTGOMERY CO. MS 04/20/2011 19:08 CST-6 Thunderstorm Wind 60 kts. EG 0 0 2.00K 0.00K
TOMNOLEN WEBSTER CO. MS 04/20/2011 19:09 CST-6 Tornado EF1 0 0 100.00K 0.00K
HESTERVILLE ATTALA CO. MS 04/20/2011 19:10 CST-6 Thunderstorm Wind 50 kts. EG 0 0 0.00K 0.00K
NEWPORT ATTALA CO. MS 04/20/2011 19:10 CST-6 Hail 1.50 in. 0 0 0.00K 0.00K
EUPORA WEBSTER CO. MS 04/20/2011 19:25 CST-6 Thunderstorm Wind 58 kts. EG 0 0 1.00K 0.00K
ADATON OKTIBBEHA CO. MS 04/20/2011 19:45 CST-6 Thunderstorm Wind 54 kts. EG 0 0 1.00K 0.00K
WAMBA ATTALA CO. MS 04/20/2011 19:47 CST-6 Thunderstorm Wind 53 kts. EG 0 0 3.00K 0.00K
CEDARBLUFF CLAY CO. MS 04/20/2011 19:50 CST-6 Thunderstorm Wind 62 kts. EG 0 0 75.00K 0.00K
STATE COLLEGE OKTIBBEHA CO. MS 04/20/2011 19:50 CST-6 Thunderstorm Wind 55 kts. EG 0 0 2.00K 0.00K
STURGIS OKTIBBEHA CO. MS 04/20/2011 19:51 CST-6 Thunderstorm Wind 55 kts. EG 0 0 60.00K 0.00K
SESSUMS OKTIBBEHA CO. MS 04/20/2011 20:06 CST-6 Thunderstorm Wind 50 kts. EG 0 0 25.00K 0.00K
CALEDONIA LOWNDES CO. MS 04/20/2011 20:10 CST-6 Thunderstorm Wind 55 kts. EG 0 0 3.00K 0.00K
CRAWFORD LOWNDES CO. MS 04/20/2011 20:10 CST-6 Thunderstorm Wind 50 kts. EG 0 0 2.00K 0.00K
BOON WINSTON CO. MS 04/20/2011 20:11 CST-6 Hail 1.50 in. 0 0 0.00K 0.00K
INTERSTATE CITY LOWNDES CO. MS 04/20/2011 20:17 CST-6 Flash Flood 0 0 1.000M 0.00K
BROOKSVILLE NOXUBEE CO. MS 04/20/2011 20:18 CST-6 Thunderstorm Wind 53 kts. EG 0 0 1.00K 0.00K
MASHULAVILLE NOXUBEE CO. MS 04/20/2011 20:21 CST-6 Hail 1.25 in. 0 0 0.00K 0.00K
MACON MUNI ARPT NOXUBEE CO. MS 04/20/2011 20:43 CST-6 Thunderstorm Wind 53 kts. EG 0 0 0.00K 0.00K
RIDGELAND MADISON CO. MS 04/20/2011 21:00 CST-6 Hail 1.75 in. 0 0 0.00K 0.00K
KALEM SCOTT CO. MS 04/20/2011 22:50 CST-6 Hail 1.00 in. 0 0 0.00K 0.00K
FORESTDALE NESHOBA CO. MS 04/20/2011 23:50 CST-6 Hail 1.00 in. 0 0 0.00K 0.00K
EAGLE BEND WARREN CO. MS 04/21/2011 06:29 CST-6 Hail 1.75 in. 0 0 0.00K 0.00K
HARDEE ISSAQUENA CO. MS 04/21/2011 06:47 CST-6 Hail 1.75 in. 0 0 0.00K 0.00K
LITTLE YAZOO YAZOO CO. MS 04/21/2011 06:48 CST-6 Hail 1.75 in. 0 0 0.00K 0.00K
KATZENMEYER WARREN CO. MS 04/21/2011 07:05 CST-6 Hail 1.00 in. 0 0 0.00K 0.00K
YAZOO CITY BARRIER A YAZOO CO. MS 04/21/2011 10:15 CST-6 Flash Flood 0 0 1.00K 0.00K
SMYRNA COPIAH CO. MS 04/21/2011 10:59 CST-6 Hail 1.00 in. 0 0 0.00K 0.00K
STALLO NESHOBA CO. MS 04/21/2011 11:45 CST-6 Lightning 0 0 20.00K 0.00K
BEULAH HUBBARD NEWTON CO. MS 04/21/2011 12:26 CST-6 Thunderstorm Wind 53 kts. EG 0 0 0.00K 0.00K
DUFFEE NEWTON CO. MS 04/21/2011 12:28 CST-6 Thunderstorm Wind 65 kts. EG 0 0 15.00K 0.00K
TRYUS LAWRENCE CO. MS 04/21/2011 12:30 CST-6 Hail 1.00 in. 0 0 0.00K 0.00K
OBADIAH LAUDERDALE CO. MS 04/21/2011 12:49 CST-6 Thunderstorm Wind 55 kts. EG 0 0 1.00K 0.00K
SMITH LAUDERDALE CO. MS 04/21/2011 13:15 CST-6 Hail 1.00 in. 0 0 0.00K 0.00K
Totals: 0 0 3.359M 0.00K